Time;durP1;ratioP1;P1;durP2;ratioP2;P2;SDS_P1;SDS_P2;PMS_P1;PMS_P2;Temp;Humidity;BMP_temperature;BMP_pressure;BME280_temperature;BME280_humidity;BME280_pressure;Samples;Min_cycle;Max_cycle;Signal;HPM_P1;HPM_P2
2022/05/28 06:19:48;;;;;;;16.10;3.13;;;11.80;76.70;;;;;;6167040;23;20118;-78
2022/05/28 06:27:00;;;;;;;21.98;3.35;;;12.10;75.70;;;;;;6187253;23;20071;-83
2022/05/28 06:38:32;;;;;;;19.50;3.33;;;12.40;75.50;;;;;;6185079;23;20004;-74
2022/05/28 07:03:01;;;;;;;20.08;2.97;;;13.20;73.40;;;;;;6175111;23;20025;-80
2022/05/28 07:05:28;;;;;;;27.48;3.75;;;13.40;73.00;;;;;;6186611;23;20063;-77
2022/05/28 07:07:57;;;;;;;;;;;13.70;72.40;;;;;;6160562;23;20009;-75
2022/05/28 07:10:44;;;;;;;13.13;3.60;;;14.10;72.10;;;;;;6156483;23;19919;-77
2022/05/28 07:13:17;;;;;;;23.70;3.97;;;14.30;70.80;;;;;;6134349;23;20009;-75
2022/05/28 07:16:11;;;;;;;16.80;3.20;;;14.40;71.20;;;;;;6158816;23;20020;-72
2022/05/28 07:18:43;;;;;;;20.02;4.53;;;14.70;70.00;;;;;;6118870;23;20017;-82
2022/05/28 07:21:44;;;;;;;16.60;3.70;;;14.50;69.00;;;;;;6134292;23;20013;-77
2022/05/28 07:25:15;;;;;;;17.10;3.50;;;14.40;70.10;;;;;;6035969;23;20018;-74
2022/05/28 07:32:30;;;;;;;;;;;;;;;;;;;;;
2022/05/28 07:39:52;;;;;;;17.83;2.78;;;14.80;68.90;;;;;;5966623;23;20049;-76
2022/05/28 07:42:42;;;;;;;;;;;14.80;69.00;;;;;;6110717;23;20012;-78
2022/05/28 07:45:11;;;;;;;19.23;3.03;;;14.50;68.20;;;;;;6167794;23;19908;-75
2022/05/28 07:52:11;;;;;;;16.35;2.95;;;14.70;68.60;;;;;;6104382;23;20056;-77
2022/05/28 07:54:25;;;;;;;21.55;3.25;;;15.00;66.40;;;;;;6123980;23;20349;-76
2022/05/28 07:56:51;;;;;;;16.42;3.78;;;15.30;67.80;;;;;;6134899;23;20044;-76
2022/05/28 07:59:51;;;;;;;25.42;3.40;;;15.30;66.70;;;;;;6134999;23;20017;-76
2022/05/28 08:02:54;;;;;;;19.58;3.05;;;15.30;66.70;;;;;;6113474;23;20067;-77
2022/05/28 08:05:21;;;;;;;15.05;2.67;;;15.10;66.50;;;;;;6159927;23;20016;-77
2022/05/28 08:12:33;;;;;;;15.40;2.95;;;15.00;65.30;;;;;;5981571;23;20047;-83
2022/05/28 08:23:13;;;;;;;15.68;3.40;;;15.30;63.40;;;;;;5763785;24;20093;-85
2022/05/28 08:26:31;;;;;;;14.32;2.75;;;15.50;63.70;;;;;;5844515;24;20055;-83
2022/05/28 08:28:59;;;;;;;16.98;3.08;;;15.70;63.80;;;;;;6029755;23;20020;-80
2022/05/28 08:31:25;;;;;;;17.77;3.15;;;16.00;63.00;;;;;;6099347;23;20013;-77
2022/05/28 08:33:54;;;;;;;11.30;2.70;;;15.90;61.20;;;;;;6099809;23;20021;-77
2022/05/28 08:36:20;;;;;;;13.23;2.70;;;16.00;62.20;;;;;;6099619;23;20097;-75
2022/05/28 08:38:46;;;;;;;14.77;3.35;;;16.00;62.60;;;;;;6099612;23;20057;-76
2022/05/28 08:41:40;;;;;;;18.55;3.00;;;15.80;62.80;;;;;;6099350;23;20014;-81
2022/05/28 08:48:38;;;;;;;17.58;2.90;;;15.70;62.60;;;;;;6184773;23;20016;-83
2022/05/28 08:52:21;;;;;;;;;;;;;;;;;;;;;
2022/05/28 10:08:33;;;;;;;20.55;3.25;;;15.90;61.40;;;;;;6187596;23;20055;-75
2022/05/28 10:11:27;;;;;;;19.00;3.15;;;15.40;62.00;;;;;;6160697;23;20096;-84
2022/05/28 10:18:27;;;;;;;13.73;2.90;;;15.40;64.60;;;;;;6186957;23;20008;-82
2022/05/28 10:21:16;;;;;;;22.92;2.88;;;15.60;64.50;;;;;;6160373;23;20017;-83
2022/05/28 10:23:49;;;;;;;16.63;3.80;;;15.50;64.60;;;;;;6160783;23;20017;-76
2022/05/28 10:26:46;;;;;;;19.02;2.95;;;15.90;64.40;;;;;;6136281;23;20092;-74
2022/05/28 10:32:46;;;;;;;22.83;3.85;;;16.60;62.70;;;;;;6071553;23;20061;-76
2022/05/28 10:35:14;;;;;;;19.90;2.92;;;16.60;61.40;;;;;;6047659;23;20022;-72
2022/05/28 10:37:46;;;;;;;16.08;3.08;;;16.80;61.70;;;;;;6146138;23;20383;-77
2022/05/28 10:40:29;;;;;;;18.38;2.95;;;16.90;60.00;;;;;;6160562;23;20465;-74
2022/05/28 10:43:23;;;;;;;20.50;3.55;;;17.20;61.00;;;;;;6135113;23;20089;-73
2022/05/28 10:46:14;;;;;;;15.05;3.22;;;17.30;60.00;;;;;;6159900;23;20080;-75
2022/05/28 10:49:24;;;;;;;17.13;3.97;;;17.00;59.10;;;;;;6135787;23;20017;-77
2022/05/28 10:52:34;;;;;;;17.77;3.15;;;16.40;60.60;;;;;;6113046;23;20470;-76
2022/05/28 10:55:21;;;;;;;14.27;2.80;;;16.10;61.00;;;;;;6132727;23;20045;-76
2022/05/28 10:58:34;;;;;;;12.20;3.25;;;16.10;61.40;;;;;;6160359;23;20364;-78
2022/05/28 11:01:35;;;;;;;16.38;2.63;;;16.10;62.50;;;;;;6160047;23;20011;-72
2022/05/28 11:04:44;;;;;;;17.05;3.35;;;15.80;62.80;;;;;;6079537;23;20046;-81
2022/05/28 11:07:53;;;;;;;18.02;2.95;;;15.00;63.50;;;;;;6087326;23;20022;-76
2022/05/28 11:14:13;;;;;;;15.40;2.97;;;14.90;68.20;;;;;;6009370;23;20326;-76
2022/05/28 11:52:19;;;;;;;12.85;3.17;;;15.10;69.10;;;;;;6194328;23;20021;-73
2022/05/28 11:55:15;;;;;;;18.23;2.78;;;15.30;67.10;;;;;;6165202;23;20013;-89
2022/05/28 11:58:00;;;;;;;14.23;2.60;;;15.50;67.90;;;;;;6165200;23;20016;-79
2022/05/28 12:00:57;;;;;;;13.60;2.15;;;15.60;64.00;;;;;;6189287;23;20367;-83
2022/05/28 12:04:19;;;;;;;;;;;;;;;;;;;;;
2022/05/28 12:07:48;;;;;;;7.88;2.05;;;15.50;61.20;;;;;;5989639;23;20019;-82
2022/05/28 12:33:53;;;;;;;8.98;1.83;;;16.50;61.20;;;;;;6201786;23;20017;-78
2022/05/28 12:40:48;;;;;;;10.88;2.00;;;17.00;59.60;;;;;;6049068;23;20018;-80
2022/05/28 12:47:10;;;;;;;16.30;2.42;;;16.70;56.30;;;;;;6037400;23;20010;-83
2022/05/28 12:50:00;;;;;;;12.85;2.38;;;17.00;58.90;;;;;;6016938;23;20007;-77
2022/05/28 12:52:52;;;;;;;14.88;2.88;;;16.90;58.10;;;;;;6135064;23;20116;-72
2022/05/28 12:55:17;;;;;;;11.95;2.25;;;16.60;58.00;;;;;;6127467;23;20013;-75
2022/05/28 12:57:58;;;;;;;11.20;2.00;;;16.40;58.80;;;;;;6134850;23;20040;-74
2022/05/28 13:00:31;;;;;;;11.90;2.53;;;16.60;59.30;;;;;;6159003;23;20013;-76
2022/05/28 13:02:59;;;;;;;13.40;2.40;;;16.40;60.30;;;;;;6158955;23;20020;-74
2022/05/28 13:05:42;;;;;;;23.15;2.92;;;16.40;60.20;;;;;;6158655;23;20009;-75
2022/05/28 13:08:21;;;;;;;13.75;2.53;;;16.10;61.40;;;;;;6158805;23;20051;-74
2022/05/28 13:10:55;;;;;;;15.25;2.53;;;16.20;62.10;;;;;;6133734;23;20089;-76
2022/05/28 13:13:33;;;;;;;13.48;2.33;;;16.50;59.90;;;;;;6160786;23;20009;-75
2022/05/28 13:16:40;;;;;;;11.95;1.85;;;16.80;58.90;;;;;;6161657;23;20009;-77
2022/05/28 13:19:05;;;;;;;7.95;2.10;;;17.00;58.50;;;;;;6156453;23;20096;-76
2022/05/28 13:21:31;;;;;;;11.93;2.05;;;17.20;56.50;;;;;;6161427;23;20045;-76
2022/05/28 13:24:30;;;;;;;8.25;1.52;;;17.40;57.30;;;;;;6161419;23;20009;-74
2022/05/28 13:27:41;;;;;;;12.48;2.42;;;17.30;54.80;;;;;;6161759;23;20023;-75
2022/05/28 13:30:17;;;;;;;9.73;2.40;;;17.40;57.90;;;;;;6072152;23;20077;-74
2022/05/28 13:32:44;;;;;;;14.98;2.70;;;17.10;56.60;;;;;;6072513;23;20405;-75
2022/05/28 13:35:13;;;;;;;12.18;2.35;;;17.00;57.30;;;;;;6120433;23;20066;-75
2022/05/28 13:38:16;;;;;;;12.40;2.08;;;16.70;57.70;;;;;;6161073;23;20025;-77
2022/05/28 13:40:42;;;;;;;12.93;2.78;;;16.50;58.90;;;;;;6072493;23;20019;-76
2022/05/28 15:05:45;;;;;;;10.35;2.03;;;14.50;77.50;;;;;;6181127;23;20059;-77
2022/05/28 15:08:21;;;;;;;;;;;15.20;75.20;;;;;;6161101;23;20091;-76
2022/05/28 15:10:49;;;;;;;15.85;2.40;;;15.50;71.30;;;;;;6160882;23;19987;-77
2022/05/28 15:13:25;;;;;;;10.88;2.03;;;15.80;67.40;;;;;;6161161;23;20017;-77
2022/05/28 15:15:56;;;;;;;13.82;2.60;;;16.10;67.10;;;;;;6161448;23;20028;-76
2022/05/28 15:18:27;;;;;;;12.40;2.40;;;16.20;66.00;;;;;;6160921;23;20049;-77
2022/05/28 15:21:00;;;;;;;13.05;2.47;;;16.30;65.60;;;;;;6136466;23;20013;-74
2022/05/28 15:23:29;;;;;;;14.05;2.35;;;16.00;63.10;;;;;;6135127;23;20013;-79
2022/05/28 15:25:55;;;;;;;14.13;2.45;;;15.60;65.40;;;;;;6135166;23;20005;-77
2022/05/28 15:28:22;;;;;;;14.60;2.60;;;15.30;65.80;;;;;;6161227;23;20096;-75
2022/05/28 15:30:48;;;;;;;16.75;2.53;;;15.20;68.20;;;;;;6136314;23;20005;-75
2022/05/28 15:33:17;;;;;;;15.45;2.90;;;15.20;68.10;;;;;;6136553;23;20059;-76
2022/05/28 15:38:27;;;;;;;14.77;2.55;;;16.40;66.20;;;;;;6187507;23;20013;-76
2022/05/28 15:40:58;;;;;;;10.00;2.10;;;17.30;61.50;;;;;;6171427;23;20327;-76
2022/05/28 15:43:29;;;;;;;14.63;2.63;;;17.70;58.90;;;;;;6166791;23;20194;-77
2022/05/28 15:45:55;;;;;;;8.13;2.10;;;18.30;58.20;;;;;;6136110;23;20016;-76
2022/05/28 15:48:21;;;;;;;11.15;1.73;;;18.70;54.70;;;;;;6160949;23;20022;-72
2022/05/28 15:50:47;;;;;;;12.15;2.30;;;18.50;55.70;;;;;;6160147;23;20444;-73
2022/05/28 15:53:13;;;;;;;8.23;1.55;;;18.40;55.00;;;;;;6160450;23;20012;-73
2022/05/28 15:55:43;;;;;;;13.45;2.08;;;18.20;55.20;;;;;;6160175;23;20020;-74
2022/05/28 15:58:32;;;;;;;10.23;2.33;;;18.50;55.60;;;;;;6160583;23;20048;-73
2022/05/28 16:01:07;;;;;;;11.60;2.33;;;19.00;54.60;;;;;;6187063;23;20019;-72
2022/05/28 16:03:33;;;;;;;13.00;2.00;;;19.20;54.50;;;;;;6159854;23;20012;-73
2022/05/28 16:06:00;;;;;;;12.02;2.20;;;18.80;54.20;;;;;;6160095;23;20009;-76
2022/05/28 16:10:57;;;;;;;17.75;2.60;;;17.40;56.90;;;;;;6161261;23;20024;-72
2022/05/28 16:13:24;;;;;;;14.70;2.15;;;16.70;63.10;;;;;;6135725;23;20020;-74
2022/05/28 16:15:51;;;;;;;10.18;2.00;;;15.90;65.40;;;;;;6160009;23;20356;-74
2022/05/28 16:18:33;;;;;;;16.15;2.60;;;15.60;66.40;;;;;;6135599;23;20012;-74
2022/05/28 16:20:59;;;;;;;15.00;2.15;;;16.10;66.30;;;;;;6160378;23;20004;-71
2022/05/28 16:23:28;;;;;;;9.45;1.83;;;16.50;65.00;;;;;;6159751;23;20023;-76
2022/05/28 16:25:54;;;;;;;6.35;1.35;;;17.00;58.80;;;;;;6160693;23;20096;-74
2022/05/28 16:28:21;;;;;;;6.90;1.65;;;17.10;58.30;;;;;;6135570;23;20495;-74
2022/05/28 16:30:46;;;;;;;;;;;17.50;56.20;;;;;;6135942;23;20091;-71
2022/05/28 16:33:12;;;;;;;14.45;1.80;;;17.30;54.30;;;;;;6185742;23;19962;-72
2022/05/28 16:35:38;;;;;;;10.95;2.33;;;16.70;56.00;;;;;;6160323;23;20356;-77
2022/05/28 16:38:05;;;;;;;8.30;1.88;;;16.30;59.30;;;;;;6136871;23;20032;-74
2022/05/28 16:40:31;;;;;;;11.85;1.80;;;15.90;58.80;;;;;;6160740;23;20016;-74
2022/05/28 16:42:57;;;;;;;;;;;15.30;59.80;;;;;;6135917;23;20012;-76
2022/05/28 16:45:28;;;;;;;9.05;1.90;;;15.10;61.70;;;;;;6160318;23;19919;-75
2022/05/28 16:47:54;;;;;;;9.95;1.95;;;15.40;62.10;;;;;;6159739;23;20020;-75
2022/05/28 16:50:20;;;;;;;10.07;1.88;;;16.00;61.00;;;;;;6135589;23;20017;-74
2022/05/28 16:52:45;;;;;;;11.18;1.95;;;16.00;59.70;;;;;;6135373;23;20016;-74
2022/05/28 16:55:11;;;;;;;9.45;1.80;;;15.70;60.40;;;;;;6160324;23;20013;-76
2022/05/28 16:57:37;;;;;;;;;;;15.40;61.50;;;;;;6160768;23;20005;-75
2022/05/28 17:00:05;;;;;;;13.65;2.00;;;15.00;61.70;;;;;;6135777;23;19959;-75
2022/05/28 17:02:30;;;;;;;12.48;2.22;;;14.70;61.90;;;;;;6159670;23;20024;-75
2022/05/28 17:04:56;;;;;;;12.80;2.13;;;14.60;64.30;;;;;;6159823;23;20009;-77
2022/05/28 17:07:22;;;;;;;19.95;2.40;;;14.50;64.50;;;;;;6135998;23;20017;-74
2022/05/28 17:09:48;;;;;;;9.38;2.42;;;14.40;64.40;;;;;;6136281;23;20010;-75
2022/05/28 17:12:17;;;;;;;12.80;2.40;;;14.20;65.30;;;;;;6141623;23;20021;-74
2022/05/28 17:14:43;;;;;;;10.90;1.77;;;14.20;64.40;;;;;;6165266;23;20016;-75
2022/05/28 17:17:09;;;;;;;8.30;2.05;;;14.20;64.40;;;;;;6159398;23;20005;-79
2022/05/28 17:19:34;;;;;;;11.40;1.98;;;14.00;64.10;;;;;;6185931;23;20076;-74
2022/05/28 17:22:00;;;;;;;9.13;2.00;;;13.90;64.40;;;;;;6159076;23;20009;-75
2022/05/28 17:24:30;;;;;;;14.00;2.05;;;13.70;64.70;;;;;;6134707;23;20054;-76
2022/05/28 17:26:59;;;;;;;7.30;1.88;;;13.60;64.70;;;;;;6159099;23;20008;-75
2022/05/28 17:29:31;;;;;;;6.97;1.60;;;13.60;64.40;;;;;;6159493;23;20096;-77
2022/05/28 17:31:59;;;;;;;10.45;1.80;;;13.60;65.40;;;;;;6159204;23;20005;-76
2022/05/28 17:34:28;;;;;;;12.05;2.00;;;13.70;65.00;;;;;;6184282;23;20013;-84
2022/05/28 17:36:54;;;;;;;17.17;2.50;;;13.70;65.90;;;;;;6159254;23;20008;-71
2022/05/28 17:39:22;;;;;;;8.10;1.98;;;13.70;65.70;;;;;;6159098;23;20079;-73
2022/05/28 17:41:49;;;;;;;18.40;2.50;;;13.70;66.40;;;;;;6184126;23;20052;-74
2022/05/28 17:44:15;;;;;;;13.43;2.58;;;13.80;66.60;;;;;;6184966;23;20017;-73
2022/05/28 17:46:41;;;;;;;;;;;13.70;67.10;;;;;;6184272;23;20301;-72
2022/05/28 17:49:07;;;;;;;15.32;3.30;;;13.70;68.30;;;;;;6184214;23;19912;-72
2022/05/28 17:51:35;;;;;;;13.35;2.42;;;13.70;67.80;;;;;;6159606;23;20017;-75
2022/05/28 17:54:02;;;;;;;11.65;2.17;;;13.70;67.40;;;;;;6159374;23;20088;-73
2022/05/28 17:56:27;;;;;;;10.27;2.45;;;13.60;67.70;;;;;;6183769;23;20130;-74
2022/05/28 17:58:53;;;;;;;14.25;2.70;;;13.40;68.70;;;;;;6182717;23;20013;-73
2022/05/28 18:01:26;;;;;;;13.30;2.13;;;13.30;69.40;;;;;;6159593;23;20020;-73
2022/05/28 18:03:55;;;;;;;15.02;2.40;;;13.30;69.80;;;;;;6184035;23;20048;-77
2022/05/28 18:07:07;;;;;;;11.98;2.45;;;13.30;69.40;;;;;;6158656;23;20017;-77
2022/05/28 18:09:42;;;;;;;11.52;2.40;;;13.20;69.40;;;;;;6135251;23;20017;-74
2022/05/28 18:12:08;;;;;;;13.60;2.50;;;13.20;69.90;;;;;;6185542;23;20363;-77
2022/05/28 18:14:34;;;;;;;12.23;2.40;;;13.10;69.60;;;;;;6160005;23;20062;-76
2022/05/28 18:17:00;;;;;;;11.48;2.63;;;13.10;70.90;;;;;;6160536;23;20076;-76
2022/05/28 18:19:44;;;;;;;14.68;2.70;;;13.00;70.20;;;;;;6159986;23;20005;-72
2022/05/28 18:26:07;;;;;;;11.10;2.28;;;12.90;73.00;;;;;;6065636;23;20090;-77
2022/05/28 18:28:36;;;;;;;14.02;2.67;;;12.90;71.70;;;;;;6064316;23;20363;-76
2022/05/28 18:31:02;;;;;;;17.33;2.70;;;12.90;73.50;;;;;;6184519;23;20013;-76
2022/05/28 18:33:34;;;;;;;10.40;2.80;;;12.80;72.40;;;;;;6159138;23;20005;-79
2022/05/28 18:36:24;;;;;;;12.23;2.88;;;12.70;72.60;;;;;;6159309;23;20045;-78
2022/05/28 18:38:56;;;;;;;15.05;2.58;;;12.70;72.60;;;;;;6133470;23;20394;-75
2022/05/28 18:41:25;;;;;;;14.60;2.42;;;12.80;72.50;;;;;;6134459;23;20005;-77
2022/05/28 18:44:36;;;;;;;;;;;;;;;;;;;;;
2022/05/28 18:48:24;;;;;;;11.52;2.55;;;12.70;74.00;;;;;;6180524;23;20316;-80
2022/05/28 18:51:33;;;;;;;;;;;;;;;;;;;;;
2022/05/28 18:54:32;;;;;;;15.70;3.08;;;12.60;74.40;;;;;;6158040;23;20013;-79
2022/05/28 19:00:42;;;;;;;15.80;2.72;;;12.50;73.90;;;;;;6184721;23;20484;-77
2022/05/28 19:03:57;;;;;;;;;;;;;;;;;;;;;
2022/05/28 19:06:57;;;;;;;14.52;2.70;;;12.20;80.90;;;;;;6095777;23;20357;-80
2022/05/28 19:09:36;;;;;;;12.57;2.75;;;12.00;79.60;;;;;;6080316;23;20117;-77
2022/05/28 19:12:25;;;;;;;11.05;2.63;;;12.10;80.20;;;;;;6074855;23;20013;-78
2022/05/28 19:14:55;;;;;;;10.82;2.83;;;11.80;81.20;;;;;;6075651;23;20020;-74
2022/05/28 19:17:24;;;;;;;10.93;2.70;;;11.70;83.30;;;;;;6074368;23;20029;-82
2022/05/28 19:19:51;;;;;;;11.93;2.40;;;11.70;83.30;;;;;;6051184;23;20551;-76
2022/05/28 19:22:22;;;;;;;10.55;3.25;;;11.60;81.40;;;;;;6098117;23;20013;-77
2022/05/28 19:28:30;;;;;;;6.72;2.15;;;11.40;82.10;;;;;;6007819;23;20023;-79
2022/05/28 19:32:09;;;;;;;13.20;2.92;;;11.40;83.50;;;;;;5980313;24;20015;-79
2022/05/28 19:38:39;;;;;;;12.57;3.08;;;11.40;83.20;;;;;;6072409;23;20452;-84
2022/05/28 19:42:15;;;;;;;;;;;;;;;;;;;;;
2022/05/28 19:48:27;;;;;;;17.27;2.92;;;11.30;83.90;;;;;;6065302;23;20027;-78
2022/05/28 19:51:58;;;;;;;16.77;3.80;;;11.30;83.60;;;;;;6041953;23;20011;-78
2022/05/28 20:09:05;;;;;;;14.68;3.10;;;11.30;86.10;;;;;;6181207;23;20020;-75
2022/05/28 20:11:34;;;;;;;12.88;3.58;;;11.30;84.80;;;;;;6135226;23;20009;-77
2022/05/28 20:14:12;;;;;;;17.73;3.05;;;11.20;84.90;;;;;;6159438;23;20009;-78
2022/05/28 20:16:44;;;;;;;12.50;2.90;;;11.30;85.40;;;;;;6134682;23;20009;-77
2022/05/28 20:20:05;;;;;;;13.80;3.00;;;11.30;84.30;;;;;;6134814;23;20036;-75
2022/05/28 20:30:20;;;;;;;18.58;3.63;;;11.20;85.80;;;;;;5978075;24;20064;-75
2022/05/28 20:33:48;;;;;;;21.55;4.45;;;11.30;86.80;;;;;;5958657;24;20019;-77
2022/05/28 20:40:51;;;;;;;24.58;4.32;;;11.10;86.30;;;;;;6055907;23;20013;-77
2022/05/28 20:48:11;;;;;;;;;;;;;;;;;;;;;
2022/05/28 20:51:46;;;;;;;;;;;;;;;;;;;;;
2022/05/28 21:17:43;;;;;;;15.23;4.00;;;10.40;90.40;;;;;;5836005;24;20173;-81
2022/05/28 21:20:13;;;;;;;16.85;3.75;;;10.40;90.20;;;;;;5933851;23;20054;-80
2022/05/28 21:22:55;;;;;;;14.18;3.85;;;10.50;89.80;;;;;;6157112;23;20044;-81
2022/05/28 21:31:48;;;;;;;13.40;3.47;;;10.50;90.20;;;;;;6156430;23;20688;-79
2022/05/28 21:34:19;;;;;;;16.80;4.30;;;10.50;90.20;;;;;;6112952;23;20128;-81
2022/05/28 21:36:46;;;;;;;21.17;4.65;;;10.50;91.00;;;;;;6136585;23;20009;-79
2022/05/28 21:39:12;;;;;;;16.77;4.03;;;10.60;90.60;;;;;;6136106;23;20063;-77
2022/05/28 21:41:38;;;;;;;17.00;3.60;;;10.60;91.70;;;;;;6136187;23;20011;-78
2022/05/28 21:44:04;;;;;;;10.43;3.00;;;10.60;90.60;;;;;;6136442;23;20040;-78
2022/05/28 21:46:34;;;;;;;9.15;2.50;;;10.50;90.30;;;;;;6136253;23;20020;-79
2022/05/28 21:49:01;;;;;;;15.18;3.35;;;10.50;90.30;;;;;;6136553;23;20072;-77
2022/05/28 21:51:27;;;;;;;12.77;3.22;;;10.50;90.80;;;;;;6135034;23;20009;-78
2022/05/28 21:53:54;;;;;;;12.90;3.55;;;10.40;90.60;;;;;;6160562;23;20084;-78
2022/05/28 21:56:19;;;;;;;;;;;10.40;90.30;;;;;;6135714;23;20013;-79
2022/05/28 21:58:45;;;;;;;13.20;3.45;;;10.40;91.20;;;;;;6135676;23;19942;-78
2022/05/28 22:01:37;;;;;;;14.93;3.97;;;10.40;91.60;;;;;;6160469;23;20088;-77
2022/05/28 22:04:04;;;;;;;12.00;3.50;;;10.40;92.20;;;;;;6134526;23;20332;-77
2022/05/28 22:06:33;;;;;;;18.20;4.03;;;10.40;91.30;;;;;;6135722;23;20013;-79
2022/05/28 22:08:59;;;;;;;20.27;4.13;;;10.40;91.30;;;;;;6160917;23;20016;-76
2022/05/28 22:11:28;;;;;;;14.40;3.60;;;10.40;91.80;;;;;;6160625;23;20005;-75
2022/05/28 22:15:02;;;;;;;;;;;;;;;;;;;;;
2022/05/28 23:59:38;;;;;;;;;;;;;;;;;;;;;
